Opa Locka, FL

2:36 PM EDT on September 02, 2015 (GMT -0400)
Opa Locka | | Change Station
CLOSE
Current Station
Airport
Location: Opa Locka,
Elevation: 10 ft
Nearby Weather Stations

Elev 10 ft 25.91 °N, 80.28 °W | Updated 31 minutes ago

Rain
Rain
80 °F
Feels Like 85 °F
N
7
Wind Variable Wind from SW

Today
High -- | Low -- °F
--% Chance of Precip.
Yesterday
High -- | Low -- °F
Precip. -- in
7:01 AM 7:39 PM
Waning Gibbous, 78% visible
Pressure 30.06 in
Visibility 10.0 miles
Clouds Scattered Clouds 4700 ft
Mostly Cloudy 7000 ft
Overcast 9000 ft
Heat Index 85 °F
Dew Point 75 °F
Humidity 85%
Rainfall 0.35 in
Snow Depth Not available.
UV 4 out of 12
Pollen 4.00 out of 12
Air Quality Not available.
Flu Activity Not available.
SPECI KOPF 021805Z 23006KT 10SM -RA SCT047 BKN070 OVC090 27/24 A3006 RMK AO2 P0001 T02670239
Pressure 30.06 in
Visibility 10.0 miles
Clouds Scattered Clouds 4700 ft
Mostly Cloudy 7000 ft
Overcast 9000 ft
Heat Index 85 °F
Dew Point 75 °F
Humidity 85%
Rainfall 0.35 in
Snow Depth Not available.
UV 4 out of 12
Pollen 4.00 out of 12
Air Quality Not available.
Flu Activity Not available.
SPECI KOPF 021805Z 23006KT 10SM -RA SCT047 BKN070 OVC090 27/24 A3006 RMK AO2 P0001 T02670239

10-Day Weather Forecast

×

Almanac

Astronomy

Sep. 02, 2015 Rise Set
Actual Time
Civil Twilight
Nautical Twilight
Astronomical Twilight
Moon
Length of Visible Light
Length of Day
Tomorrow will be .
, % of the Moon is Illuminated

Today's Extremes

State Highs State Lows

Community

WunderPhotos

Upload Photos

1,851,793 photos uploaded!

WunderBlogs® & News

Nearby

Air Quality

  Air Quality AQ Index Pollutant
Not available.

Snow Depth

Station Depth Elevation

Earthquake Activity

City Distance Mag. Time & Date
Minimum magnitude displayed is 2.5.

Coastal Water Temperatures

Place Temperature

Stations

Nearby Weather Stations

Station Location Temp. Windchill Dew Point Humidity Wind Precip. Elev Updated Type